Time;durP1;ratioP1;P1;durP2;ratioP2;P2;SDS_P1;SDS_P2;PMS_P1;PMS_P2;Temp;Humidity;BMP_temperature;BMP_pressure;BME280_temperature;BME280_humidity;BME280_pressure;Samples;Min_cycle;Max_cycle;Signal;HPM_P1;HPM_P2
2023/07/23 00:02:24;;;;;;;4.70;4.20;;;19.40;92.50;;;;;;4956022;29;20054;-61
2023/07/23 00:04:49;;;;;;;4.50;4.10;;;19.40;92.50;;;;;;4956362;29;20039;-61
2023/07/23 00:07:15;;;;;;;4.18;3.78;;;19.40;92.40;;;;;;4955935;29;20097;-61
2023/07/23 00:09:40;;;;;;;4.70;3.70;;;19.40;92.30;;;;;;4955904;29;20031;-61
2023/07/23 00:12:06;;;;;;;3.85;3.47;;;19.40;92.10;;;;;;4954580;29;20113;-60
2023/07/23 00:14:32;;;;;;;3.42;3.13;;;19.40;91.90;;;;;;4955881;29;20031;-62
2023/07/23 00:16:58;;;;;;;3.80;3.40;;;19.40;91.80;;;;;;4956366;29;20547;-61
2023/07/23 00:19:23;;;;;;;4.10;3.47;;;19.40;91.70;;;;;;4955872;29;20377;-61
2023/07/23 00:21:50;;;;;;;3.45;3.15;;;19.30;91.60;;;;;;4955780;29;20075;-62
2023/07/23 00:24:17;;;;;;;3.95;3.03;;;19.30;91.50;;;;;;4955634;29;20474;-62
2023/07/23 00:26:43;;;;;;;3.60;3.30;;;19.30;91.40;;;;;;4955907;29;20491;-61
2023/07/23 00:29:08;;;;;;;3.53;3.22;;;19.30;91.20;;;;;;4955605;29;20019;-61
2023/07/23 00:31:34;;;;;;;3.30;3.00;;;19.30;91.20;;;;;;4955862;29;20070;-61
2023/07/23 00:34:00;;;;;;;3.05;2.85;;;19.30;91.10;;;;;;4955765;29;20031;-61
2023/07/23 00:36:26;;;;;;;3.97;3.20;;;19.30;91.10;;;;;;4955401;29;20031;-60
2023/07/23 00:38:52;;;;;;;3.40;3.10;;;19.30;91.10;;;;;;4955816;29;20032;-61
2023/07/23 00:41:17;;;;;;;3.30;3.00;;;19.30;91.10;;;;;;4955566;29;20031;-61
2023/07/23 00:43:43;;;;;;;3.33;3.03;;;19.30;91.10;;;;;;4955679;29;20110;-61
2023/07/23 00:46:09;;;;;;;3.38;3.08;;;19.30;91.00;;;;;;4955372;29;20019;-61
2023/07/23 00:48:34;;;;;;;3.65;3.35;;;19.30;90.90;;;;;;4955318;29;20027;-61
2023/07/23 00:51:01;;;;;;;3.00;2.80;;;19.30;90.90;;;;;;4955199;29;20086;-61
2023/07/23 00:53:27;;;;;;;3.10;2.80;;;19.30;90.80;;;;;;4955195;29;20043;-60
2023/07/23 00:55:53;;;;;;;3.35;2.95;;;19.30;90.80;;;;;;4955721;29;20030;-61
2023/07/23 00:58:19;;;;;;;3.00;2.80;;;19.30;90.70;;;;;;4954946;29;20051;-62
2023/07/23 01:00:45;;;;;;;2.88;2.67;;;19.30;90.70;;;;;;4955101;28;20098;-61
2023/07/23 01:03:10;;;;;;;3.30;3.00;;;19.30;90.60;;;;;;4954927;29;20039;-60
2023/07/23 01:05:41;;;;;;;3.38;3.10;;;19.30;90.60;;;;;;4955000;29;20046;-62
2023/07/23 01:08:07;;;;;;;3.47;3.17;;;19.20;90.50;;;;;;4955027;29;20053;-61
2023/07/23 01:10:33;;;;;;;2.97;2.72;;;19.30;90.60;;;;;;4954835;29;20265;-61
2023/07/23 01:12:59;;;;;;;2.85;2.65;;;19.20;90.60;;;;;;4955079;29;20496;-60
2023/07/23 01:15:26;;;;;;;2.75;2.55;;;19.30;90.50;;;;;;4954349;29;20041;-62
2023/07/23 01:17:54;;;;;;;2.53;2.33;;;19.30;90.50;;;;;;4953496;29;20115;-62
2023/07/23 01:20:20;;;;;;;3.05;2.83;;;19.30;90.50;;;;;;4954576;29;20079;-61
2023/07/23 01:22:45;;;;;;;2.90;2.70;;;19.30;90.50;;;;;;4954819;29;20031;-59
2023/07/23 01:25:11;;;;;;;3.33;3.03;;;19.20;90.50;;;;;;4955280;29;20379;-58
2023/07/23 01:27:37;;;;;;;2.92;2.70;;;19.30;90.50;;;;;;4954653;29;20061;-59
2023/07/23 01:30:04;;;;;;;2.83;2.63;;;19.30;90.50;;;;;;4953157;29;20484;-61
2023/07/23 01:32:29;;;;;;;2.90;2.70;;;19.20;90.40;;;;;;4953787;29;20023;-61
2023/07/23 01:34:57;;;;;;;3.03;2.83;;;19.30;90.50;;;;;;4952527;29;20498;-62
2023/07/23 01:37:23;;;;;;;2.90;2.70;;;19.20;90.40;;;;;;4952892;29;20023;-61
2023/07/23 01:39:49;;;;;;;3.17;2.65;;;19.30;90.50;;;;;;4952470;29;20035;-62
2023/07/23 01:42:16;;;;;;;3.22;2.92;;;19.20;90.40;;;;;;4952350;29;20430;-62
2023/07/23 01:44:42;;;;;;;3.00;2.78;;;19.20;90.40;;;;;;4952729;29;20023;-61
2023/07/23 01:47:09;;;;;;;3.03;2.80;;;19.20;90.40;;;;;;4952805;29;20038;-60
2023/07/23 01:49:34;;;;;;;4.15;2.80;;;19.20;90.40;;;;;;4952823;29;20377;-61
2023/07/23 01:52:00;;;;;;;2.72;2.53;;;19.20;90.50;;;;;;4952586;29;20031;-61
2023/07/23 01:54:25;;;;;;;3.10;2.80;;;19.20;90.40;;;;;;4953704;29;20019;-61
2023/07/23 01:56:52;;;;;;;3.38;3.08;;;19.20;90.40;;;;;;4954229;29;20090;-61
2023/07/23 01:59:17;;;;;;;3.03;2.78;;;19.30;90.40;;;;;;4954574;29;20031;-62
2023/07/23 02:01:43;;;;;;;3.38;3.08;;;19.30;90.30;;;;;;4953815;29;20057;-60
2023/07/23 02:04:09;;;;;;;3.03;2.83;;;19.20;90.20;;;;;;4954009;29;20031;-61
2023/07/23 02:06:36;;;;;;;3.38;3.08;;;19.20;90.20;;;;;;4953826;29;20038;-61
2023/07/23 02:09:01;;;;;;;3.10;2.80;;;19.30;90.20;;;;;;4954087;29;20550;-61
2023/07/23 02:11:27;;;;;;;3.08;2.83;;;19.20;90.20;;;;;;4953859;28;20027;-61
2023/07/23 02:13:52;;;;;;;2.70;2.50;;;19.20;90.20;;;;;;4953605;29;20103;-62
2023/07/23 02:16:20;;;;;;;3.63;2.95;;;19.20;90.20;;;;;;4953842;29;20126;-61
2023/07/23 02:18:46;;;;;;;2.92;2.65;;;19.20;90.20;;;;;;4954002;29;20053;-62
2023/07/23 02:21:11;;;;;;;2.75;2.55;;;19.10;90.20;;;;;;4953632;29;20027;-61
2023/07/23 02:23:37;;;;;;;3.47;2.60;;;19.10;90.30;;;;;;4953707;29;20031;-61
2023/07/23 02:26:03;;;;;;;3.00;2.80;;;19.10;90.30;;;;;;4953659;29;20031;-61
2023/07/23 02:28:28;;;;;;;2.95;2.75;;;19.20;90.30;;;;;;4953390;29;20027;-61
2023/07/23 02:30:58;;;;;;;2.83;2.63;;;19.20;90.30;;;;;;4953549;29;20106;-61
2023/07/23 02:33:24;;;;;;;2.83;2.63;;;19.10;90.30;;;;;;4953557;29;20479;-61
2023/07/23 02:35:50;;;;;;;3.15;2.85;;;19.10;90.40;;;;;;4953339;29;20327;-60
2023/07/23 02:38:16;;;;;;;3.45;3.03;;;19.00;90.40;;;;;;4953511;29;20031;-62
2023/07/23 02:40:42;;;;;;;3.28;2.97;;;19.00;90.50;;;;;;4953484;29;20047;-61
2023/07/23 02:43:12;;;;;;;3.20;2.90;;;19.10;90.60;;;;;;4953179;29;20376;-61
2023/07/23 02:45:39;;;;;;;3.22;2.92;;;19.00;90.70;;;;;;4953386;29;20106;-62
2023/07/23 02:48:06;;;;;;;3.13;2.92;;;19.00;90.70;;;;;;4953545;29;20420;-61
2023/07/23 02:50:31;;;;;;;3.17;2.92;;;19.00;90.70;;;;;;4953172;29;20082;-61
2023/07/23 02:52:57;;;;;;;3.85;3.10;;;19.00;90.70;;;;;;4953297;29;20031;-62
2023/07/23 02:55:25;;;;;;;3.47;2.95;;;19.00;90.70;;;;;;4953820;29;20038;-62
2023/07/23 02:57:51;;;;;;;2.85;2.65;;;19.00;90.70;;;;;;4953094;29;20074;-61
2023/07/23 03:00:18;;;;;;;3.35;3.05;;;19.00;90.80;;;;;;4953022;29;20062;-61
2023/07/23 03:02:46;;;;;;;2.80;2.60;;;19.00;90.90;;;;;;4953207;29;20036;-60
2023/07/23 03:05:11;;;;;;;3.13;2.88;;;19.00;90.90;;;;;;4952992;29;20016;-61
2023/07/23 03:07:38;;;;;;;3.08;2.85;;;19.00;90.90;;;;;;4953092;29;20539;-62
2023/07/23 03:10:04;;;;;;;3.00;2.70;;;19.00;91.00;;;;;;4953006;29;20042;-61
2023/07/23 03:12:31;;;;;;;3.40;3.10;;;19.00;91.00;;;;;;4952994;29;20224;-61
2023/07/23 03:14:56;;;;;;;3.47;3.17;;;19.00;91.00;;;;;;4953021;29;20067;-62
2023/07/23 03:17:22;;;;;;;3.10;2.90;;;18.90;91.10;;;;;;4952974;29;20078;-62
2023/07/23 03:19:48;;;;;;;2.97;2.70;;;18.90;91.10;;;;;;4953237;29;20448;-62
2023/07/23 03:22:13;;;;;;;3.40;3.08;;;18.90;91.10;;;;;;4952963;29;20023;-61
2023/07/23 03:24:39;;;;;;;2.90;2.70;;;18.90;91.20;;;;;;4954512;28;20035;-62
2023/07/23 03:27:05;;;;;;;3.22;2.92;;;18.90;91.20;;;;;;4956701;29;20035;-62
2023/07/23 03:29:31;;;;;;;4.05;3.60;;;18.90;91.30;;;;;;4956721;29;20027;-60
2023/07/23 03:31:56;;;;;;;3.70;3.40;;;19.00;91.30;;;;;;4956635;29;20082;-62
2023/07/23 03:34:22;;;;;;;3.63;3.33;;;18.90;91.30;;;;;;4956559;29;20475;-62
2023/07/23 03:36:47;;;;;;;3.42;3.13;;;18.90;91.40;;;;;;4956599;29;20027;-61
2023/07/23 03:39:16;;;;;;;3.50;3.13;;;19.00;91.40;;;;;;4956778;29;20423;-60
2023/07/23 03:41:43;;;;;;;3.55;3.25;;;19.00;91.40;;;;;;4956397;29;20051;-61
2023/07/23 03:44:08;;;;;;;3.60;3.30;;;19.00;91.40;;;;;;4956443;29;20028;-62
2023/07/23 03:46:45;;;;;;;3.50;3.20;;;19.00;91.40;;;;;;4956405;29;20035;-62
2023/07/23 03:49:11;;;;;;;3.47;3.17;;;19.10;91.20;;;;;;4956698;29;20097;-62
2023/07/23 03:51:37;;;;;;;3.63;3.33;;;19.10;91.20;;;;;;4956394;29;20378;-61
2023/07/23 03:54:03;;;;;;;3.50;3.20;;;19.10;91.20;;;;;;4956252;29;20047;-62
2023/07/23 03:56:28;;;;;;;3.20;2.90;;;19.10;91.20;;;;;;4956102;29;20118;-61
2023/07/23 03:58:54;;;;;;;2.97;2.78;;;19.10;91.20;;;;;;4956157;29;20039;-61
2023/07/23 04:01:19;;;;;;;3.38;3.08;;;19.10;91.20;;;;;;4956184;29;20074;-61
2023/07/23 04:03:45;;;;;;;3.58;3.28;;;19.10;91.10;;;;;;4955991;29;20423;-62
2023/07/23 04:06:11;;;;;;;3.55;3.25;;;19.10;91.20;;;;;;4938824;29;20033;-62
2023/07/23 04:08:36;;;;;;;3.33;3.03;;;19.20;91.20;;;;;;4956223;29;20050;-61
2023/07/23 04:11:02;;;;;;;3.47;3.17;;;19.20;91.20;;;;;;4955993;29;20039;-61
2023/07/23 04:13:28;;;;;;;3.50;3.20;;;19.20;91.20;;;;;;4955773;29;20034;-62
2023/07/23 04:15:53;;;;;;;3.90;3.53;;;19.20;91.20;;;;;;4956171;29;20119;-62
2023/07/23 04:18:19;;;;;;;3.97;3.67;;;19.20;91.10;;;;;;4955815;29;20027;-62
2023/07/23 04:20:44;;;;;;;4.38;3.63;;;19.20;91.10;;;;;;4955662;29;20062;-61
2023/07/23 04:23:10;;;;;;;3.50;3.20;;;19.20;91.10;;;;;;4955644;29;20034;-61
2023/07/23 04:25:36;;;;;;;4.15;3.60;;;19.20;91.00;;;;;;4955597;29;20031;-61
2023/07/23 04:28:03;;;;;;;3.75;3.45;;;19.30;91.10;;;;;;4955706;29;20035;-62
2023/07/23 04:30:30;;;;;;;3.88;3.42;;;19.30;91.00;;;;;;4955746;29;20392;-62
2023/07/23 04:32:57;;;;;;;3.83;3.53;;;19.30;90.90;;;;;;4955282;29;20023;-61
2023/07/23 04:35:23;;;;;;;3.50;3.20;;;19.30;90.90;;;;;;4955076;28;20019;-61
2023/07/23 04:37:48;;;;;;;3.75;3.40;;;19.30;90.90;;;;;;4955668;29;20054;-62
2023/07/23 04:40:14;;;;;;;3.45;3.17;;;19.30;90.90;;;;;;4955593;29;20029;-62
2023/07/23 04:42:40;;;;;;;3.40;3.13;;;19.30;91.20;;;;;;4955453;29;20023;-61
2023/07/23 04:45:06;;;;;;;3.60;3.30;;;19.30;91.00;;;;;;4955271;29;20033;-62
2023/07/23 04:47:31;;;;;;;3.47;3.17;;;19.30;90.90;;;;;;4959300;28;20019;-62
2023/07/23 04:49:57;;;;;;;3.45;3.15;;;19.30;90.80;;;;;;4974552;28;20058;-62
2023/07/23 04:52:23;;;;;;;3.10;2.90;;;19.30;90.80;;;;;;4974647;28;20495;-61
2023/07/23 04:54:50;;;;;;;3.30;3.05;;;19.30;90.70;;;;;;4974525;28;20031;-61
2023/07/23 04:57:16;;;;;;;3.47;3.10;;;19.30;90.70;;;;;;4974434;28;20046;-61
2023/07/23 04:59:41;;;;;;;3.50;3.20;;;19.30;90.70;;;;;;4974249;28;20134;-61
2023/07/23 05:02:07;;;;;;;3.00;2.78;;;19.40;90.80;;;;;;4974164;28;20034;-60
2023/07/23 05:04:34;;;;;;;3.08;2.88;;;19.40;90.70;;;;;;4973550;28;20031;-60
2023/07/23 05:06:59;;;;;;;2.92;2.72;;;19.40;90.60;;;;;;4972679;28;20034;-61
2023/07/23 05:09:25;;;;;;;3.03;2.78;;;19.40;90.50;;;;;;4973413;28;20027;-61
2023/07/23 05:11:51;;;;;;;2.95;2.75;;;19.40;90.50;;;;;;4972856;28;20031;-62
2023/07/23 05:14:16;;;;;;;2.92;2.72;;;19.40;90.50;;;;;;4972137;28;20108;-62
2023/07/23 05:16:42;;;;;;;3.22;2.90;;;19.40;90.60;;;;;;4972665;28;20046;-61
2023/07/23 05:19:08;;;;;;;4.57;3.00;;;19.40;90.50;;;;;;4973065;28;20022;-61
2023/07/23 05:21:36;;;;;;;3.10;2.90;;;19.50;90.50;;;;;;4972328;28;20074;-61
2023/07/23 05:24:02;;;;;;;3.45;3.08;;;19.50;90.50;;;;;;4972188;28;20038;-61
2023/07/23 05:26:28;;;;;;;3.05;2.78;;;19.50;90.40;;;;;;4971760;28;20065;-62
2023/07/23 05:28:53;;;;;;;2.95;2.75;;;19.50;90.40;;;;;;4971668;28;20116;-61
2023/07/23 05:31:19;;;;;;;3.13;2.75;;;19.50;90.40;;;;;;4971787;28;20034;-61
2023/07/23 05:33:45;;;;;;;2.65;2.45;;;19.50;90.20;;;;;;4972183;28;20038;-61
2023/07/23 05:36:10;;;;;;;2.50;2.30;;;19.50;90.00;;;;;;4972790;28;20132;-62
2023/07/23 05:38:36;;;;;;;2.80;2.60;;;19.50;89.90;;;;;;4973187;28;20039;-62
2023/07/23 05:41:02;;;;;;;2.65;2.45;;;19.50;89.70;;;;;;4973625;28;20038;-61
2023/07/23 05:43:29;;;;;;;2.92;2.60;;;19.50;89.70;;;;;;4973728;28;20019;-62
2023/07/23 05:45:55;;;;;;;2.67;2.47;;;19.60;89.70;;;;;;4973788;28;20030;-61
2023/07/23 05:48:21;;;;;;;3.97;2.72;;;19.60;89.30;;;;;;4972731;28;20110;-62
2023/07/23 05:50:46;;;;;;;2.75;2.55;;;19.60;88.80;;;;;;4973332;28;20586;-62
2023/07/23 05:53:12;;;;;;;2.65;2.45;;;19.60;88.90;;;;;;4973162;28;20031;-61
2023/07/23 05:55:38;;;;;;;3.10;2.90;;;19.70;88.80;;;;;;4973111;28;20475;-62
2023/07/23 05:58:03;;;;;;;3.20;2.97;;;19.70;88.30;;;;;;4973403;28;20482;-62
2023/07/23 06:00:29;;;;;;;3.28;3.03;;;19.70;88.30;;;;;;4973307;28;20491;-62
2023/07/23 06:02:55;;;;;;;3.08;2.88;;;19.80;88.10;;;;;;4972861;28;20031;-61
2023/07/23 06:05:20;;;;;;;3.33;3.13;;;19.80;87.90;;;;;;4973250;28;20026;-62
2023/07/23 06:07:46;;;;;;;3.03;2.83;;;19.90;88.10;;;;;;4972771;28;20058;-62
2023/07/23 06:10:12;;;;;;;3.00;2.80;;;19.90;88.00;;;;;;4972919;28;20019;-62
2023/07/23 06:12:38;;;;;;;3.13;2.92;;;19.90;87.50;;;;;;4971064;28;20081;-62
2023/07/23 06:15:04;;;;;;;2.67;2.47;;;20.00;87.50;;;;;;4953935;28;20053;-62
2023/07/23 06:17:29;;;;;;;2.92;2.72;;;20.00;87.50;;;;;;4972776;28;20113;-62
2023/07/23 06:19:55;;;;;;;2.88;2.67;;;20.00;87.30;;;;;;4972716;28;20487;-62
2023/07/23 06:22:21;;;;;;;3.05;2.85;;;20.10;87.00;;;;;;4972662;28;20038;-62
2023/07/23 06:24:46;;;;;;;2.90;2.70;;;20.10;86.70;;;;;;4972741;28;20483;-60
2023/07/23 06:27:12;;;;;;;3.08;2.88;;;20.10;86.30;;;;;;4972911;28;20084;-62
2023/07/23 06:29:38;;;;;;;3.20;2.90;;;20.10;86.40;;;;;;4972768;28;20548;-62
2023/07/23 06:32:04;;;;;;;2.70;2.50;;;20.10;86.90;;;;;;4972887;28;20106;-62
2023/07/23 06:34:30;;;;;;;2.50;2.40;;;20.10;87.20;;;;;;4972868;28;20098;-61
2023/07/23 06:36:55;;;;;;;2.45;2.28;;;20.10;86.80;;;;;;4972140;28;20157;-62
2023/07/23 06:39:21;;;;;;;2.60;2.20;;;20.20;86.40;;;;;;4972699;28;20106;-62
2023/07/23 06:41:47;;;;;;;2.45;2.25;;;20.20;86.20;;;;;;4972856;28;20031;-62
2023/07/23 06:44:12;;;;;;;2.03;1.92;;;20.30;86.40;;;;;;4972610;28;20499;-62
2023/07/23 06:46:38;;;;;;;1.98;1.67;;;20.40;85.90;;;;;;4972480;28;20109;-62
2023/07/23 06:49:04;;;;;;;1.63;1.52;;;20.50;85.30;;;;;;4972819;28;20113;-62
2023/07/23 06:51:29;;;;;;;1.80;1.70;;;20.60;84.50;;;;;;4972454;28;20046;-60
2023/07/23 06:53:55;;;;;;;2.08;1.88;;;20.70;83.90;;;;;;4972520;28;20070;-62
2023/07/23 06:56:20;;;;;;;1.67;1.58;;;20.80;83.30;;;;;;4972397;28;20117;-62
2023/07/23 06:58:47;;;;;;;1.58;1.48;;;20.80;82.90;;;;;;4972131;28;20058;-62
2023/07/23 07:01:12;;;;;;;1.80;1.70;;;20.90;83.00;;;;;;4972557;28;20134;-62
2023/07/23 07:03:38;;;;;;;1.40;1.40;;;21.00;82.80;;;;;;4972278;28;20066;-62
2023/07/23 07:06:04;;;;;;;1.70;1.60;;;21.10;82.80;;;;;;4972417;28;20113;-61
2023/07/23 07:08:30;;;;;;;1.45;1.35;;;21.20;82.60;;;;;;4972044;28;20389;-62
2023/07/23 07:11:00;;;;;;;1.30;1.30;;;21.30;82.10;;;;;;4970162;28;20486;-62
2023/07/23 07:13:27;;;;;;;1.30;1.27;;;21.40;82.00;;;;;;4970892;28;20117;-62
2023/07/23 07:15:53;;;;;;;1.38;1.35;;;21.50;81.80;;;;;;4969726;28;20034;-61
2023/07/23 07:18:19;;;;;;;1.35;1.25;;;21.70;81.40;;;;;;4969917;28;20106;-62
2023/07/23 07:20:44;;;;;;;1.70;1.60;;;21.80;80.90;;;;;;4970219;28;20058;-62
2023/07/23 07:23:10;;;;;;;1.70;1.60;;;21.90;80.60;;;;;;4970884;28;20025;-62
2023/07/23 07:25:36;;;;;;;1.67;1.60;;;21.90;80.20;;;;;;4971989;28;20043;-62
2023/07/23 07:28:02;;;;;;;1.90;1.80;;;22.00;80.00;;;;;;4971848;28;20031;-61
2023/07/23 07:30:27;;;;;;;2.00;1.90;;;22.00;80.00;;;;;;4971186;28;20093;-62
2023/07/23 07:32:53;;;;;;;2.20;2.10;;;22.00;80.30;;;;;;4971361;28;20423;-63
2023/07/23 07:35:19;;;;;;;2.10;2.00;;;22.10;80.20;;;;;;4971525;28;20041;-62
2023/07/23 07:37:46;;;;;;;3.30;2.10;;;22.10;79.80;;;;;;4970960;28;20034;-62
2023/07/23 07:40:13;;;;;;;2.63;2.42;;;22.10;79.70;;;;;;4972257;28;20038;-61
2023/07/23 07:42:40;;;;;;;2.25;2.05;;;22.10;79.50;;;;;;4972396;28;20072;-62
2023/07/23 07:45:06;;;;;;;2.20;2.10;;;22.10;79.50;;;;;;4971808;28;20027;-62
2023/07/23 07:47:31;;;;;;;2.17;2.08;;;22.10;79.60;;;;;;4972168;28;20098;-62
2023/07/23 07:49:57;;;;;;;2.30;2.10;;;22.10;79.80;;;;;;4971973;28;20126;-62
2023/07/23 07:52:23;;;;;;;1.98;1.88;;;22.10;79.50;;;;;;4972054;28;20062;-62
2023/07/23 07:54:48;;;;;;;2.40;2.20;;;22.10;79.50;;;;;;4971931;28;20061;-62
2023/07/23 07:57:14;;;;;;;2.35;2.15;;;22.20;79.10;;;;;;4954373;28;20077;-62
2023/07/23 07:59:40;;;;;;;2.20;2.10;;;22.20;79.00;;;;;;4971584;28;20039;-62
2023/07/23 08:02:06;;;;;;;2.22;2.05;;;22.20;78.90;;;;;;4971915;28;20027;-62
2023/07/23 08:04:32;;;;;;;2.33;2.22;;;22.30;78.90;;;;;;4971798;28;20027;-62
2023/07/23 08:06:59;;;;;;;2.30;2.20;;;22.30;78.90;;;;;;4971209;28;20030;-62
2023/07/23 08:09:26;;;;;;;2.58;2.38;;;22.30;78.90;;;;;;4971213;28;20106;-62
2023/07/23 08:11:53;;;;;;;2.78;2.58;;;22.30;78.70;;;;;;4975058;28;20090;-63
2023/07/23 08:14:19;;;;;;;3.38;2.58;;;22.30;78.60;;;;;;4975275;28;20062;-62
2023/07/23 08:16:47;;;;;;;2.60;2.28;;;22.30;78.70;;;;;;4975454;28;20030;-63
2023/07/23 08:19:13;;;;;;;2.58;2.38;;;22.40;78.80;;;;;;4975393;28;20085;-62
2023/07/23 08:21:38;;;;;;;2.63;2.42;;;22.40;78.70;;;;;;4975001;28;20026;-59
2023/07/23 08:24:04;;;;;;;2.30;2.20;;;22.40;78.60;;;;;;4975097;28;20483;-62
2023/07/23 08:26:33;;;;;;;2.50;2.35;;;22.40;78.20;;;;;;4975073;28;20030;-62
2023/07/23 08:29:03;;;;;;;2.50;2.30;;;22.50;77.90;;;;;;4975258;28;20058;-62
2023/07/23 08:31:28;;;;;;;2.50;2.40;;;22.50;78.00;;;;;;4973227;28;20031;-62
2023/07/23 08:33:55;;;;;;;2.38;2.22;;;22.40;78.10;;;;;;4968789;28;20396;-62
2023/07/23 08:36:21;;;;;;;2.88;2.42;;;22.50;78.30;;;;;;4953502;29;20415;-62
2023/07/23 08:38:47;;;;;;;2.45;2.35;;;22.50;78.10;;;;;;4953543;29;20058;-62
2023/07/23 08:41:42;;;;;;;2.72;2.53;;;22.60;77.90;;;;;;4954912;29;20035;-61
2023/07/23 08:44:13;;;;;;;2.75;2.55;;;22.60;77.60;;;;;;4955612;29;20045;-63
2023/07/23 08:46:46;;;;;;;2.30;2.20;;;22.70;77.40;;;;;;4954967;29;20399;-62
2023/07/23 08:49:12;;;;;;;2.60;2.40;;;22.70;77.20;;;;;;4955175;29;20054;-62
2023/07/23 08:51:47;;;;;;;2.90;2.70;;;22.70;77.20;;;;;;4953598;29;20027;-62
2023/07/23 08:54:15;;;;;;;2.70;2.50;;;22.70;76.80;;;;;;4953809;29;20023;-63
2023/07/23 08:56:42;;;;;;;2.80;2.60;;;22.70;76.80;;;;;;4954755;29;20027;-62
2023/07/23 08:59:08;;;;;;;2.80;2.60;;;22.70;76.70;;;;;;4954055;29;20023;-62
2023/07/23 09:01:36;;;;;;;2.95;2.75;;;22.60;76.90;;;;;;4954574;29;20484;-62
2023/07/23 09:04:04;;;;;;;2.55;2.42;;;22.60;76.80;;;;;;4954070;29;20368;-62
2023/07/23 09:06:31;;;;;;;3.08;2.78;;;22.60;77.00;;;;;;4955162;29;20444;-62
2023/07/23 09:09:08;;;;;;;2.50;2.40;;;22.60;77.30;;;;;;4954976;29;20032;-63
2023/07/23 09:11:35;;;;;;;2.85;2.65;;;22.60;77.10;;;;;;4954842;29;20542;-62
2023/07/23 09:14:12;;;;;;;2.75;2.55;;;22.50;77.10;;;;;;4955051;29;20058;-62
2023/07/23 09:16:40;;;;;;;2.30;2.20;;;22.50;77.00;;;;;;4963969;28;20030;-62
2023/07/23 09:19:08;;;;;;;3.17;2.88;;;22.50;77.10;;;;;;4974289;28;20031;-62
2023/07/23 09:21:34;;;;;;;3.28;3.03;;;22.40;77.20;;;;;;4972873;28;20026;-62
2023/07/23 09:24:05;;;;;;;2.70;2.50;;;22.40;77.40;;;;;;4974124;28;20061;-61
2023/07/23 09:26:32;;;;;;;3.00;2.80;;;22.40;77.60;;;;;;4974207;28;20027;-62
2023/07/23 09:28:59;;;;;;;2.65;2.47;;;22.40;77.80;;;;;;4974035;28;20023;-62
2023/07/23 09:31:31;;;;;;;3.10;2.90;;;22.40;77.90;;;;;;4974097;28;20034;-62
2023/07/23 09:33:59;;;;;;;3.08;2.88;;;22.40;77.70;;;;;;4972953;28;20039;-63
2023/07/23 09:36:26;;;;;;;3.38;3.08;;;22.30;77.90;;;;;;4971421;28;20034;-62
2023/07/23 09:38:59;;;;;;;3.40;3.15;;;22.40;77.70;;;;;;4972715;28;20023;-62
2023/07/23 09:41:36;;;;;;;3.60;3.30;;;22.40;77.70;;;;;;4973483;28;20062;-62
2023/07/23 09:44:06;;;;;;;3.65;3.35;;;22.40;77.80;;;;;;4972524;28;20106;-61
2023/07/23 09:46:32;;;;;;;4.00;3.25;;;22.40;77.90;;;;;;4973401;28;20383;-61
2023/07/23 09:48:58;;;;;;;3.80;3.50;;;22.40;77.90;;;;;;4972967;28;20433;-62
2023/07/23 09:51:24;;;;;;;3.65;3.35;;;22.40;77.80;;;;;;4971620;28;20034;-62
2023/07/23 09:53:50;;;;;;;4.05;3.75;;;22.40;77.60;;;;;;4972291;28;20027;-62
2023/07/23 09:56:18;;;;;;;3.88;3.58;;;22.40;77.40;;;;;;4963973;28;20027;-62
2023/07/23 09:58:47;;;;;;;4.25;3.85;;;22.40;77.30;;;;;;4971637;28;20055;-62
2023/07/23 10:01:17;;;;;;;3.17;2.97;;;22.40;77.00;;;;;;4972640;28;20479;-62
2023/07/23 10:03:44;;;;;;;3.53;3.22;;;22.40;76.40;;;;;;4972256;28;20027;-62
2023/07/23 10:06:12;;;;;;;3.78;3.40;;;22.40;76.30;;;;;;4972207;28;20034;-62
2023/07/23 10:08:44;;;;;;;3.28;3.00;;;22.40;76.30;;;;;;4971219;28;20050;-62
2023/07/23 10:11:11;;;;;;;3.58;3.28;;;22.40;76.00;;;;;;4971289;28;20026;-62
2023/07/23 10:13:38;;;;;;;3.33;3.03;;;22.40;75.90;;;;;;4972511;28;20238;-62
2023/07/23 10:16:08;;;;;;;3.20;3.00;;;22.40;75.80;;;;;;4972439;28;20054;-63
2023/07/23 10:18:38;;;;;;;3.50;3.20;;;22.40;75.80;;;;;;4972456;28;20062;-62
2023/07/23 10:21:06;;;;;;;3.45;3.15;;;22.40;76.00;;;;;;4972624;28;20022;-62
2023/07/23 10:23:32;;;;;;;3.28;3.05;;;22.50;75.70;;;;;;4972905;28;20036;-62
2023/07/23 10:26:19;;;;;;;3.55;3.25;;;22.50;75.50;;;;;;4973064;28;20134;-62
2023/07/23 10:28:45;;;;;;;3.60;3.30;;;22.50;75.40;;;;;;4973080;28;20429;-62
2023/07/23 10:31:22;;;;;;;3.72;3.42;;;22.50;75.70;;;;;;4972774;28;20027;-62
2023/07/23 10:33:50;;;;;;;3.28;3.08;;;22.50;75.00;;;;;;4972681;28;20094;-62
2023/07/23 10:36:16;;;;;;;3.10;2.90;;;22.50;75.00;;;;;;4972940;28;20031;-62
2023/07/23 10:38:41;;;;;;;3.60;3.30;;;22.50;75.00;;;;;;4972945;28;20038;-62
2023/07/23 10:41:07;;;;;;;3.28;3.03;;;22.50;74.60;;;;;;4972812;28;20030;-62
2023/07/23 10:43:52;;;;;;;3.60;3.30;;;22.50;74.60;;;;;;4972886;28;20046;-62
2023/07/23 10:46:19;;;;;;;3.65;3.35;;;22.60;74.60;;;;;;4972961;28;20031;-62
2023/07/23 10:48:48;;;;;;;3.55;3.25;;;22.60;74.50;;;;;;4972829;28;20503;-62
2023/07/23 10:51:15;;;;;;;3.60;3.30;;;22.60;74.60;;;;;;4972763;28;20482;-62
2023/07/23 10:53:55;;;;;;;3.55;3.25;;;22.60;74.50;;;;;;4972972;28;20521;-61
2023/07/23 10:56:29;;;;;;;3.83;3.50;;;22.60;74.50;;;;;;4972723;28;20034;-61
2023/07/23 10:58:57;;;;;;;3.97;3.67;;;22.60;74.70;;;;;;4955210;28;20077;-61
2023/07/23 11:01:26;;;;;;;4.07;3.78;;;22.60;74.80;;;;;;4972506;28;20557;-61
2023/07/23 11:03:56;;;;;;;4.40;4.00;;;22.60;74.80;;;;;;4972052;28;20019;-62
2023/07/23 11:06:30;;;;;;;4.55;4.15;;;22.60;74.60;;;;;;4972500;28;20034;-62
2023/07/23 11:08:58;;;;;;;4.43;4.03;;;22.70;74.60;;;;;;4972376;28;20038;-60
2023/07/23 11:11:36;;;;;;;4.65;4.25;;;22.70;74.50;;;;;;4972298;28;20051;-59
2023/07/23 11:14:14;;;;;;;4.63;4.22;;;22.70;74.20;;;;;;4972258;28;20522;-60
2023/07/23 11:16:41;;;;;;;4.60;4.20;;;22.70;74.00;;;;;;4972318;28;20455;-59
2023/07/23 11:19:07;;;;;;;4.65;4.20;;;22.70;74.00;;;;;;4972346;28;20106;-60
2023/07/23 11:21:33;;;;;;;4.55;4.15;;;22.70;74.10;;;;;;4972056;28;20063;-59
2023/07/23 11:23:59;;;;;;;4.20;3.90;;;22.70;74.10;;;;;;4972588;28;20050;-60
2023/07/23 11:26:25;;;;;;;4.72;4.32;;;22.80;74.10;;;;;;4972367;28;20027;-60
2023/07/23 11:28:51;;;;;;;4.45;4.05;;;22.80;74.00;;;;;;4972218;28;20042;-61
2023/07/23 11:31:17;;;;;;;5.00;4.60;;;22.80;74.00;;;;;;4972015;28;20027;-61
2023/07/23 11:33:43;;;;;;;5.03;4.47;;;22.80;74.00;;;;;;4972333;28;20031;-61
2023/07/23 11:36:09;;;;;;;4.57;4.18;;;22.80;74.10;;;;;;4972314;28;20077;-61
2023/07/23 11:38:34;;;;;;;4.35;3.97;;;22.80;73.70;;;;;;4971890;28;20051;-61
2023/07/23 11:41:01;;;;;;;4.93;4.53;;;22.80;73.80;;;;;;4971895;28;20085;-61
2023/07/23 11:43:27;;;;;;;5.00;4.60;;;22.90;73.90;;;;;;4972242;28;20031;-61
2023/07/23 11:45:53;;;;;;;4.82;4.43;;;22.90;73.70;;;;;;4974144;28;20126;-62
2023/07/23 11:48:22;;;;;;;5.78;4.55;;;22.90;73.70;;;;;;4975918;28;20034;-61
2023/07/23 11:50:48;;;;;;;4.68;4.28;;;22.90;73.70;;;;;;4976139;28;20031;-61
2023/07/23 11:53:29;;;;;;;5.22;4.72;;;22.90;73.30;;;;;;4975656;28;20186;-61
2023/07/23 11:56:02;;;;;;;;;;;22.90;73.30;;;;;;4960835;28;20054;-61
2023/07/23 11:58:28;;;;;;;4.32;3.92;;;23.00;73.30;;;;;;4974057;28;20369;-61
2023/07/23 12:00:54;;;;;;;4.88;4.47;;;22.90;72.90;;;;;;4975447;28;20082;-61
2023/07/23 12:03:20;;;;;;;4.68;4.28;;;22.90;72.70;;;;;;4975521;28;20464;-62
2023/07/23 12:05:46;;;;;;;5.25;4.75;;;23.00;72.50;;;;;;4975462;28;20593;-62
2023/07/23 12:08:11;;;;;;;4.95;4.50;;;23.00;72.30;;;;;;4975309;28;20383;-61
2023/07/23 12:10:37;;;;;;;4.82;4.43;;;23.00;72.40;;;;;;4974035;28;20034;-61
2023/07/23 12:13:10;;;;;;;4.82;4.43;;;23.10;72.40;;;;;;4975566;28;20039;-61
2023/07/23 12:15:46;;;;;;;5.28;4.78;;;23.10;72.30;;;;;;4975191;28;20034;-61
2023/07/23 12:18:12;;;;;;;5.00;4.60;;;23.10;72.10;;;;;;4975246;28;20046;-61
2023/07/23 12:20:38;;;;;;;5.45;4.82;;;23.10;71.90;;;;;;4975061;28;20034;-61
2023/07/23 12:23:04;;;;;;;4.18;3.85;;;23.10;71.70;;;;;;4975114;28;20045;-61
2023/07/23 12:25:30;;;;;;;4.40;4.00;;;23.10;71.20;;;;;;4975015;28;20015;-61
2023/07/23 12:27:55;;;;;;;5.47;4.40;;;23.10;71.00;;;;;;4974964;28;20110;-61
2023/07/23 12:30:21;;;;;;;4.28;3.88;;;23.10;70.80;;;;;;4974900;28;20027;-61
2023/07/23 12:32:48;;;;;;;4.38;3.97;;;23.10;70.70;;;;;;4974921;28;20036;-61
2023/07/23 12:35:14;;;;;;;4.50;4.10;;;23.20;70.60;;;;;;4975106;28;20022;-61
2023/07/23 12:37:39;;;;;;;4.40;4.00;;;23.20;70.30;;;;;;4974749;28;20031;-61
2023/07/23 12:40:08;;;;;;;4.35;3.95;;;23.20;70.20;;;;;;4974816;28;20037;-61
2023/07/23 12:42:35;;;;;;;4.55;4.15;;;23.20;70.30;;;;;;4974868;28;20050;-61
2023/07/23 12:45:02;;;;;;;4.50;4.10;;;23.20;70.10;;;;;;4974622;28;20419;-61
2023/07/23 12:47:28;;;;;;;4.25;3.85;;;23.20;69.70;;;;;;4975104;28;20026;-61